createdAt,value
2023-06-17T00:01:12.084Z,99903.22
2023-06-17T00:03:39.269Z,99908.72
2023-06-17T00:06:06.423Z,99905.22
2023-06-17T00:08:33.583Z,99902.66
2023-06-17T00:11:00.630Z,99899.19
2023-06-17T00:13:28.107Z,99889.31
2023-06-17T00:15:58.022Z,99893.81
2023-06-17T00:18:26.251Z,99892.97
2023-06-17T00:20:55.045Z,99888.50
2023-06-17T00:23:22.589Z,99892.97
2023-06-17T00:25:51.055Z,99891.19
2023-06-17T00:28:18.378Z,99893.03
2023-06-17T00:30:48.944Z,99884.97
2023-06-17T00:33:16.742Z,99883.22
2023-06-17T00:35:44.112Z,99888.63
2023-06-17T00:38:11.279Z,99879.63
2023-06-17T00:40:38.522Z,99881.47
2023-06-17T00:43:05.738Z,99881.53
2023-06-17T00:45:40.013Z,99878.00
2023-06-17T00:48:11.356Z,99878.03
2023-06-17T00:50:39.054Z,99884.28
2023-06-17T00:53:07.505Z,99882.53
2023-06-17T00:55:35.293Z,99879.84
2023-06-17T00:58:02.744Z,99871.75
2023-06-17T01:00:29.855Z,99869.19
2023-06-17T01:02:57.997Z,99875.31
2023-06-17T01:05:25.824Z,99873.53
2023-06-17T01:08:30.326Z,99873.63
2023-06-17T01:11:07.346Z,99872.66
2023-06-17T01:13:36.587Z,99870.00
2023-06-17T01:16:06.045Z,99866.41
2023-06-17T01:18:34.390Z,99870.03
2023-06-17T01:21:04.819Z,99865.56
2023-06-17T01:23:38.339Z,99871.81
2023-06-17T01:26:06.435Z,99868.25
2023-06-17T01:28:37.795Z,99877.13
2023-06-17T01:31:06.156Z,99871.78
2023-06-17T01:33:33.563Z,99878.03
2023-06-17T01:36:27.854Z,99878.06
2023-06-17T01:39:04.693Z,99869.19
2023-06-17T01:41:39.898Z,99870.09
2023-06-17T01:44:09.168Z,99871.88
2023-06-17T01:46:37.074Z,99874.59
2023-06-17T01:49:04.503Z,99872.75
2023-06-17T01:51:31.632Z,99875.47
2023-06-17T01:53:58.783Z,99861.22
2023-06-17T01:56:25.917Z,99863.00
2023-06-17T01:58:53.034Z,99864.81
2023-06-17T02:01:20.619Z,99857.66
2023-06-17T02:03:47.981Z,99858.50
2023-06-17T02:06:15.189Z,99856.78
2023-06-17T02:08:43.299Z,99846.09
2023-06-17T02:11:10.423Z,99850.56
2023-06-17T02:13:37.491Z,99842.59
2023-06-17T02:16:04.608Z,99845.25
2023-06-17T02:18:33.607Z,99841.69
2023-06-17T02:21:02.569Z,99842.59
2023-06-17T02:23:29.724Z,99837.22
2023-06-17T02:25:57.800Z,99843.47
2023-06-17T02:28:24.899Z,99843.47
2023-06-17T02:30:52.258Z,99839.94
2023-06-17T02:33:19.681Z,99833.72
2023-06-17T02:35:47.073Z,99831.06
2023-06-17T02:38:14.553Z,99831.94
2023-06-17T02:40:41.700Z,99823.00
2023-06-17T02:43:08.926Z,99825.72
2023-06-17T02:45:36.021Z,99817.72
2023-06-17T02:48:03.713Z,99816.81
2023-06-17T02:50:30.862Z,99820.41
2023-06-17T02:52:58.241Z,99815.06
2023-06-17T02:55:26.802Z,99813.22
2023-06-17T02:57:54.757Z,99815.03
2023-06-17T03:00:22.586Z,99815.94
2023-06-17T03:02:50.960Z,99815.03
2023-06-17T03:05:18.241Z,99816.78
2023-06-17T03:07:47.954Z,99812.34
2023-06-17T03:10:16.697Z,99818.59
2023-06-17T03:12:43.730Z,99818.41
2023-06-17T03:15:11.159Z,99822.06
2023-06-17T03:17:38.514Z,99818.47
2023-06-17T03:20:09.696Z,99821.09
2023-06-17T03:22:36.800Z,99817.59
2023-06-17T03:25:04.389Z,99815.78
2023-06-17T03:27:32.618Z,99822.06
2023-06-17T03:29:59.696Z,99822.97
2023-06-17T03:32:26.912Z,99826.47
2023-06-17T03:34:58.064Z,99830.91
2023-06-17T03:37:25.372Z,99831.78
2023-06-17T03:39:52.499Z,99830.91
2023-06-17T03:42:19.602Z,99824.72
2023-06-17T03:44:46.709Z,99842.44
2023-06-17T03:47:13.883Z,99845.09
2023-06-17T03:49:41.026Z,99845.00
2023-06-17T03:52:08.404Z,99843.25
2023-06-17T03:54:35.420Z,99834.41
2023-06-17T03:57:02.454Z,99837.91
2023-06-17T03:59:29.483Z,99833.50
2023-06-17T04:01:56.591Z,99832.63
2023-06-17T04:04:23.907Z,99833.44
2023-06-17T04:06:50.999Z,99829.91
2023-06-17T04:09:18.101Z,99831.63
2023-06-17T04:11:45.330Z,99827.13
2023-06-17T04:14:12.412Z,99830.81
2023-06-17T04:16:39.437Z,99823.69
2023-06-17T04:19:06.929Z,99823.69
2023-06-17T04:21:34.322Z,99820.91
2023-06-17T04:24:01.573Z,99826.19
2023-06-17T04:26:29.387Z,99817.19
2023-06-17T04:28:56.788Z,99811.78
2023-06-17T04:31:24.193Z,99819.84
2023-06-17T04:33:51.279Z,99821.66
2023-06-17T04:36:18.705Z,99817.22
2023-06-17T04:38:46.035Z,99815.41
2023-06-17T04:41:14.003Z,99813.59
2023-06-17T04:43:41.167Z,99817.84
2023-06-17T04:46:09.450Z,99826.91
2023-06-17T04:48:38.650Z,99821.59
2023-06-17T04:51:07.260Z,99822.31
2023-06-17T04:53:34.407Z,99821.19
2023-06-17T04:56:01.753Z,99818.56
2023-06-17T04:58:28.803Z,99818.47
2023-06-17T05:00:55.874Z,99816.63
2023-06-17T05:03:23.023Z,99822.81
2023-06-17T05:05:50.241Z,99819.94
2023-06-17T05:08:17.340Z,99829.69
2023-06-17T05:10:44.623Z,99819.94
2023-06-17T05:13:11.764Z,99825.22
2023-06-17T05:15:38.845Z,99835.41
2023-06-17T05:18:06.044Z,99821.97
2023-06-17T05:20:33.162Z,99832.50
2023-06-17T05:23:00.387Z,99831.31
2023-06-17T05:25:27.630Z,99834.13
2023-06-17T05:27:54.907Z,99837.59
2023-06-17T05:30:22.279Z,99839.50
2023-06-17T05:32:49.580Z,99831.97
2023-06-17T05:35:16.728Z,99839.75
2023-06-17T05:37:43.781Z,99837.34
2023-06-17T05:40:11.296Z,99833.06
2023-06-17T05:42:38.405Z,99839.06
2023-06-17T05:45:06.126Z,99843.19
2023-06-17T05:47:33.440Z,99842.72
2023-06-17T05:50:00.679Z,99840.50
2023-06-17T05:52:27.900Z,99840.31
2023-06-17T05:54:55.049Z,99841.47
2023-06-17T05:57:22.488Z,99839.22
2023-06-17T05:59:49.666Z,99835.47
2023-06-17T06:02:16.844Z,99829.38
2023-06-17T06:04:44.000Z,99834.19
2023-06-17T06:07:11.026Z,99852.03
2023-06-17T06:09:38.132Z,99841.94
2023-06-17T06:12:06.051Z,99845.94
2023-06-17T06:14:33.104Z,99847.56
2023-06-17T06:17:00.137Z,99840.13
2023-06-17T06:19:27.264Z,99840.31
2023-06-17T06:21:54.339Z,99854.63
2023-06-17T06:24:21.559Z,99850.19
2023-06-17T06:26:49.113Z,99853.59
2023-06-17T06:29:16.363Z,99851.03
2023-06-17T06:31:44.701Z,99859.78
2023-06-17T06:34:11.938Z,99857.97
2023-06-17T06:36:39.005Z,99860.81
2023-06-17T06:39:06.145Z,99851.84
2023-06-17T06:41:33.262Z,99854.81
2023-06-17T06:44:00.343Z,99861.31
2023-06-17T06:46:27.525Z,99862.84
2023-06-17T06:48:54.697Z,99856.34
2023-06-17T06:51:22.002Z,99850.38
2023-06-17T06:53:50.149Z,99853.84
2023-06-17T06:56:17.233Z,99852.91
2023-06-17T06:58:44.475Z,99850.00
2023-06-17T07:01:11.628Z,99838.78
2023-06-17T07:03:38.991Z,99843.50
2023-06-17T07:06:06.384Z,99848.00
2023-06-17T07:08:33.567Z,99838.47
2023-06-17T07:11:00.693Z,99836.34
2023-06-17T07:13:28.467Z,99831.66
2023-06-17T07:15:55.704Z,99833.56
2023-06-17T07:18:23.809Z,99836.19
2023-06-17T07:20:50.936Z,99843.09
2023-06-17T07:23:18.249Z,99833.28
2023-06-17T07:25:45.365Z,99831.00
2023-06-17T07:28:14.117Z,99831.47
2023-06-17T07:30:41.778Z,99847.34
2023-06-17T07:33:09.064Z,99848.44
2023-06-17T07:35:36.182Z,99840.25
2023-06-17T07:38:03.383Z,99838.69
2023-06-17T07:40:30.704Z,99835.44
2023-06-17T07:42:57.738Z,99838.06
2023-06-17T07:45:24.843Z,99831.16
2023-06-17T07:47:51.949Z,99834.66
2023-06-17T07:50:19.253Z,99827.66
2023-06-17T07:52:46.500Z,99829.41
2023-06-17T07:55:13.614Z,99830.09
2023-06-17T07:57:40.776Z,99830.34
2023-06-17T08:00:12.068Z,99833.34
2023-06-17T08:02:40.137Z,99827.78
2023-06-17T08:05:08.075Z,99828.94
2023-06-17T08:07:35.263Z,99822.88
2023-06-17T08:10:02.763Z,99824.34
2023-06-17T08:12:29.846Z,99811.94
2023-06-17T08:14:57.005Z,99820.88
2023-06-17T08:17:24.132Z,99819.41
2023-06-17T08:19:51.290Z,99825.59
2023-06-17T08:22:18.360Z,99822.34
2023-06-17T08:24:45.482Z,99825.09
2023-06-17T08:27:13.398Z,99810.06
2023-06-17T08:29:41.324Z,99807.69
2023-06-17T08:32:08.711Z,99802.56
2023-06-17T08:34:36.404Z,99809.22
2023-06-17T08:37:05.951Z,99797.44
2023-06-17T08:39:33.435Z,99800.38
2023-06-17T08:42:00.830Z,99797.84
2023-06-17T08:44:31.378Z,99800.25
2023-06-17T08:47:00.209Z,99796.38
2023-06-17T08:49:29.155Z,99799.13
2023-06-17T08:51:58.105Z,99802.44
2023-06-17T08:54:27.229Z,99801.81
2023-06-17T08:56:55.126Z,99798.00
2023-06-17T08:59:22.268Z,99797.41
2023-06-17T09:01:52.702Z,99790.50
2023-06-17T09:04:23.283Z,99791.16
2023-06-17T09:06:52.351Z,99792.25
2023-06-17T09:09:20.165Z,99790.97
2023-06-17T09:11:52.771Z,99790.19
2023-06-17T09:14:23.629Z,99793.72
2023-06-17T09:16:51.735Z,99788.47
2023-06-17T09:19:19.176Z,99790.41
2023-06-17T09:21:49.466Z,99787.91
2023-06-17T09:24:16.754Z,99790.41
2023-06-17T09:26:45.935Z,99790.84
2023-06-17T09:29:14.653Z,99792.59
2023-06-17T09:31:56.240Z,99785.91
2023-06-17T09:34:24.150Z,99787.94
2023-06-17T09:37:02.294Z,99800.16
2023-06-17T09:39:34.520Z,99788.50
2023-06-17T09:42:12.113Z,99788.59
2023-06-17T09:44:40.905Z,99786.06
2023-06-17T09:47:09.792Z,99782.16
2023-06-17T09:49:38.123Z,99788.84
2023-06-17T09:52:10.583Z,99790.09
2023-06-17T09:54:38.989Z,99793.88
2023-06-17T09:57:10.561Z,99790.53
2023-06-17T09:59:37.907Z,99783.94
2023-06-17T10:02:05.472Z,99790.63
2023-06-17T10:04:32.830Z,99787.31
2023-06-17T10:07:02.539Z,99787.13
2023-06-17T10:09:30.501Z,99783.81
2023-06-17T10:12:00.263Z,99784.66
2023-06-17T10:14:36.019Z,99785.34
2023-06-17T10:17:09.204Z,99780.19
2023-06-17T10:19:39.145Z,99788.09
2023-06-17T10:22:12.251Z,99794.34
2023-06-17T10:24:39.828Z,99792.59
2023-06-17T10:27:08.197Z,99792.88
2023-06-17T10:29:36.182Z,99794.78
2023-06-17T10:32:27.433Z,99790.81
2023-06-17T10:35:06.809Z,99802.66
2023-06-17T10:37:46.698Z,99792.59
2023-06-17T10:40:27.508Z,99802.97
2023-06-17T10:43:18.858Z,99811.00
2023-06-17T10:45:58.796Z,99807.03
2023-06-17T10:48:36.080Z,99795.19
2023-06-17T10:51:12.063Z,99813.47
2023-06-17T10:53:46.817Z,99811.25
2023-06-17T10:56:15.092Z,99804.91
2023-06-17T10:58:48.727Z,99815.41
2023-06-17T11:01:16.330Z,99805.94
2023-06-17T11:03:43.517Z,99810.19
2023-06-17T11:06:11.697Z,99804.50
2023-06-17T11:08:39.462Z,99803.69
2023-06-17T11:11:15.328Z,99808.13
2023-06-17T11:13:44.997Z,99811.75
2023-06-17T11:16:12.465Z,99809.25
2023-06-17T11:18:42.648Z,99803.22
2023-06-17T11:21:10.876Z,99807.00
2023-06-17T11:23:41.368Z,99804.81
2023-06-17T11:26:09.174Z,99800.13
2023-06-17T11:28:37.175Z,99787.91
2023-06-17T11:31:04.895Z,99801.69
2023-06-17T11:33:35.435Z,99797.28
2023-06-17T11:36:09.718Z,99790.88
2023-06-17T11:38:37.997Z,99792.31
2023-06-17T11:41:05.412Z,99784.16
2023-06-17T11:43:32.787Z,99788.34
2023-06-17T11:46:00.066Z,99784.94
2023-06-17T11:48:33.929Z,99787.38
2023-06-17T11:51:01.275Z,99781.38
2023-06-17T11:53:36.625Z,99785.22
2023-06-17T11:56:08.879Z,99782.75
2023-06-17T11:58:39.660Z,99780.16
2023-06-17T12:01:07.964Z,99777.31
2023-06-17T12:03:35.956Z,99778.03
2023-06-17T12:06:03.566Z,99765.53
2023-06-17T12:08:38.259Z,99771.59
2023-06-17T12:11:24.206Z,99772.50
2023-06-17T12:13:55.696Z,99769.03
2023-06-17T12:16:37.488Z,99769.09
2023-06-17T12:19:14.175Z,99765.00
2023-06-17T12:21:41.691Z,99762.50
2023-06-17T12:24:08.948Z,99761.28
2023-06-17T12:26:36.081Z,99771.69
2023-06-17T12:29:11.800Z,99769.94
2023-06-17T12:31:47.428Z,99766.56
2023-06-17T12:34:14.512Z,99764.00
2023-06-17T12:36:41.730Z,99758.41
2023-06-17T12:39:08.892Z,99762.69
2023-06-17T12:41:37.063Z,99763.19
2023-06-17T12:44:04.283Z,99759.78
2023-06-17T12:46:33.463Z,99759.47
2023-06-17T12:49:00.599Z,99758.03
2023-06-17T12:51:27.702Z,99761.03
2023-06-17T12:53:54.803Z,99763.25
2023-06-17T12:56:21.832Z,99754.97
2023-06-17T12:58:48.911Z,99750.34
2023-06-17T13:01:15.992Z,99747.81
2023-06-17T13:03:43.443Z,99748.47
2023-06-17T13:06:10.489Z,99751.88
2023-06-17T13:08:38.319Z,99740.72
2023-06-17T13:11:05.376Z,99741.75
2023-06-17T13:13:33.967Z,99744.59
2023-06-17T13:16:01.404Z,99742.75
2023-06-17T13:18:29.232Z,99740.50
2023-06-17T13:20:56.372Z,99741.81
2023-06-17T13:23:23.404Z,99746.69
2023-06-17T13:25:51.070Z,99751.91
2023-06-17T13:28:19.772Z,99740.69
2023-06-17T13:30:47.184Z,99739.44
2023-06-17T13:33:14.561Z,99742.69
2023-06-17T13:35:41.609Z,99728.00
2023-06-17T13:38:08.697Z,99738.31
2023-06-17T13:40:36.017Z,99737.56
2023-06-17T13:43:03.608Z,99734.75
2023-06-17T13:45:31.112Z,99729.47
2023-06-17T13:47:58.738Z,99724.50
2023-06-17T13:50:25.952Z,99722.78
2023-06-17T13:52:54.626Z,99721.94
2023-06-17T13:55:22.247Z,99728.09
2023-06-17T13:57:49.352Z,99735.69
2023-06-17T14:00:17.669Z,99728.38
2023-06-17T14:02:44.951Z,99726.63
2023-06-17T14:05:12.013Z,99722.19
2023-06-17T14:07:39.105Z,99722.97
2023-06-17T14:10:06.976Z,99717.00
2023-06-17T14:12:34.012Z,99713.94
2023-06-17T14:15:01.049Z,99721.69
2023-06-17T14:17:29.882Z,99715.84
2023-06-17T14:19:57.099Z,99715.44
2023-06-17T14:22:24.221Z,99716.00
2023-06-17T14:24:51.348Z,99720.75
2023-06-17T14:27:41.844Z,99705.09
2023-06-17T14:30:12.075Z,99708.91
2023-06-17T14:32:45.790Z,99704.19
2023-06-17T14:35:17.521Z,99716.09
2023-06-17T14:37:47.529Z,99712.72
2023-06-17T14:40:16.065Z,99711.97
2023-06-17T14:42:43.275Z,99714.13
2023-06-17T14:45:13.092Z,99716.41
2023-06-17T14:47:41.191Z,99715.84
2023-06-17T14:50:12.387Z,99715.88
2023-06-17T14:52:40.684Z,99716.59
2023-06-17T14:55:08.249Z,99718.44
2023-06-17T14:57:35.281Z,99710.75
2023-06-17T15:00:02.354Z,99715.94
2023-06-17T15:02:56.158Z,99721.59
2023-06-17T15:05:27.072Z,99723.91
2023-06-17T15:07:54.363Z,99721.22
2023-06-17T15:10:21.746Z,99721.59
2023-06-17T15:12:49.049Z,99721.47
2023-06-17T15:15:18.234Z,99723.91
2023-06-17T15:17:45.683Z,99715.16
2023-06-17T15:20:12.873Z,99726.44
2023-06-17T15:22:40.449Z,99728.03
2023-06-17T15:25:08.513Z,99728.81
2023-06-17T15:27:36.056Z,99728.91
2023-06-17T15:30:03.713Z,99729.38
2023-06-17T15:32:30.980Z,99735.78
2023-06-17T15:34:59.546Z,99735.94
2023-06-17T15:37:29.758Z,99732.81
2023-06-17T15:39:56.781Z,99744.16
2023-06-17T15:42:23.976Z,99734.34
2023-06-17T15:44:51.157Z,99735.66
2023-06-17T15:47:18.238Z,99733.50
2023-06-17T15:49:45.385Z,99733.41
2023-06-17T15:52:12.425Z,99733.69
2023-06-17T15:54:39.640Z,99745.47
2023-06-17T15:57:09.419Z,99742.59
2023-06-17T15:59:37.073Z,99735.59
2023-06-17T16:02:04.720Z,99738.13
2023-06-17T16:04:40.313Z,99742.34
2023-06-17T16:07:10.565Z,99739.09
2023-06-17T16:09:45.223Z,99738.47
2023-06-17T16:12:15.268Z,99744.31
2023-06-17T16:14:43.569Z,99736.66
2023-06-17T16:17:11.925Z,99742.84
2023-06-17T16:19:40.100Z,99752.28
2023-06-17T16:22:13.220Z,99752.97
2023-06-17T16:24:42.813Z,99754.56
2023-06-17T16:27:12.076Z,99755.84
2023-06-17T16:29:39.836Z,99758.88
2023-06-17T16:32:07.463Z,99768.06
2023-06-17T16:34:34.761Z,99765.00
2023-06-17T16:37:01.965Z,99769.59
2023-06-17T16:39:29.362Z,99771.47
2023-06-17T16:41:56.420Z,99769.66
2023-06-17T16:44:23.530Z,99775.63
2023-06-17T16:46:50.810Z,99773.22
2023-06-17T16:49:17.962Z,99771.75
2023-06-17T16:51:45.765Z,99771.56
2023-06-17T16:54:12.838Z,99780.13
2023-06-17T16:56:39.913Z,99779.78
2023-06-17T16:59:06.964Z,99787.28
2023-06-17T17:01:34.237Z,99784.88
2023-06-17T17:04:09.474Z,99793.72
2023-06-17T17:06:36.667Z,99789.00
2023-06-17T17:09:04.772Z,99797.75
2023-06-17T17:11:32.191Z,99803.16
2023-06-17T17:13:59.548Z,99807.63
2023-06-17T17:16:26.953Z,99794.47
2023-06-17T17:18:54.156Z,99813.00
2023-06-17T17:21:21.269Z,99808.16
2023-06-17T17:23:48.495Z,99813.66
2023-06-17T17:26:15.794Z,99817.13
2023-06-17T17:28:43.359Z,99819.78
2023-06-17T17:31:10.718Z,99809.41
2023-06-17T17:33:38.245Z,99813.00
2023-06-17T17:36:05.754Z,99817.88
2023-06-17T17:38:32.885Z,99815.09
2023-06-17T17:40:59.977Z,99821.88
2023-06-17T17:43:29.795Z,99804.72
2023-06-17T17:45:58.652Z,99815.56
2023-06-17T17:48:26.055Z,99823.25
2023-06-17T17:50:53.099Z,99823.31
2023-06-17T17:53:20.255Z,99820.63
2023-06-17T17:55:47.378Z,99818.22
2023-06-17T17:58:14.773Z,99822.84
2023-06-17T18:00:41.799Z,99823.28
2023-06-17T18:03:09.119Z,99827.66
2023-06-17T18:05:36.303Z,99823.94
2023-06-17T18:08:03.484Z,99821.50
2023-06-17T18:10:30.570Z,99823.03
2023-06-17T18:12:57.631Z,99817.16
2023-06-17T18:15:24.710Z,99826.75
2023-06-17T18:17:51.905Z,99834.16
2023-06-17T18:20:19.324Z,99838.00
2023-06-17T18:22:46.745Z,99837.19
2023-06-17T18:25:13.844Z,99841.81
2023-06-17T18:27:40.964Z,99842.16
2023-06-17T18:30:08.940Z,99844.91
2023-06-17T18:32:36.208Z,99839.31
2023-06-17T18:35:03.814Z,99844.75
2023-06-17T18:37:30.877Z,99847.50
2023-06-17T18:39:58.290Z,99848.53
2023-06-17T18:42:25.365Z,99854.75
2023-06-17T18:44:52.496Z,99860.41
2023-06-17T18:47:19.657Z,99863.13
2023-06-17T18:49:48.721Z,99869.38
2023-06-17T18:52:17.808Z,99867.56
2023-06-17T18:54:44.903Z,99870.53
2023-06-17T18:57:12.394Z,99864.94
2023-06-17T18:59:39.579Z,99860.19
2023-06-17T19:02:07.110Z,99857.06
2023-06-17T19:04:34.185Z,99863.56
2023-06-17T19:07:03.204Z,99865.97
2023-06-17T19:09:31.816Z,99864.38
2023-06-17T19:12:00.977Z,99869.69
2023-06-17T19:14:28.313Z,99871.47
2023-06-17T19:16:55.839Z,99867.25
2023-06-17T19:19:23.018Z,99871.50
2023-06-17T19:21:50.297Z,99864.38
2023-06-17T19:24:19.611Z,99863.78
2023-06-17T19:26:46.730Z,99855.56
2023-06-17T19:29:13.819Z,99865.56
2023-06-17T19:31:41.048Z,99873.66
2023-06-17T19:34:08.191Z,99871.31
2023-06-17T19:36:35.278Z,99872.09
2023-06-17T19:39:02.434Z,99878.66
2023-06-17T19:41:30.652Z,99878.34
2023-06-17T19:43:58.225Z,99890.19
2023-06-17T19:46:26.568Z,99881.31
2023-06-17T19:48:53.798Z,99891.84
2023-06-17T19:51:20.936Z,99892.97
2023-06-17T19:53:48.032Z,99896.47
2023-06-17T19:56:15.130Z,99887.78
2023-06-17T19:58:42.194Z,99897.44
2023-06-17T20:01:09.316Z,99880.31
2023-06-17T20:03:36.632Z,99885.88
2023-06-17T20:06:03.930Z,99883.25
2023-06-17T20:08:31.679Z,99887.81
2023-06-17T20:10:58.774Z,99884.38
2023-06-17T20:13:25.867Z,99888.97
2023-06-17T20:15:53.119Z,99890.66
2023-06-17T20:18:20.302Z,99893.28
2023-06-17T20:20:47.377Z,99894.47
2023-06-17T20:23:14.453Z,99884.72
2023-06-17T20:25:41.773Z,99896.09
2023-06-17T20:28:08.904Z,99892.78
2023-06-17T20:30:35.989Z,99891.13
2023-06-17T20:33:03.187Z,99887.72
2023-06-17T20:35:30.312Z,99888.97
2023-06-17T20:37:57.926Z,99892.16
2023-06-17T20:40:25.010Z,99888.63
2023-06-17T20:42:52.107Z,99892.31
2023-06-17T20:45:19.346Z,99886.31
2023-06-17T20:47:46.498Z,99881.47
2023-06-17T20:50:13.664Z,99892.38
2023-06-17T20:52:41.088Z,99892.41
2023-06-17T20:55:08.777Z,99897.78
2023-06-17T20:57:35.945Z,99890.72
2023-06-17T21:00:03.753Z,99891.28
2023-06-17T21:02:31.065Z,99887.72
2023-06-17T21:04:58.383Z,99888.72
2023-06-17T21:07:25.990Z,99889.78
2023-06-17T21:09:53.649Z,99892.56
2023-06-17T21:12:22.036Z,99888.16
2023-06-17T21:14:49.373Z,99879.97
2023-06-17T21:17:16.964Z,99886.13
2023-06-17T21:19:44.096Z,99885.31
2023-06-17T21:22:11.311Z,99886.13
2023-06-17T21:24:38.901Z,99885.13
2023-06-17T21:27:10.831Z,99887.06
2023-06-17T21:29:39.503Z,99886.97
2023-06-17T21:32:09.141Z,99884.31
2023-06-17T21:34:39.237Z,99877.34
2023-06-17T21:37:06.701Z,99887.22
2023-06-17T21:39:33.982Z,99878.28
2023-06-17T21:42:01.031Z,99883.53
2023-06-17T21:44:28.193Z,99889.91
2023-06-17T21:46:55.291Z,99887.19
2023-06-17T21:49:22.348Z,99887.97
2023-06-17T21:51:50.135Z,99888.69
2023-06-17T21:54:17.357Z,99879.91
2023-06-17T21:56:44.981Z,99893.31
2023-06-17T21:59:13.289Z,99883.78
2023-06-17T22:01:40.448Z,99892.56
2023-06-17T22:04:07.708Z,99891.59
2023-06-17T22:06:34.894Z,99885.34
2023-06-17T22:09:02.089Z,99890.06
2023-06-17T22:11:29.216Z,99890.88
2023-06-17T22:13:56.567Z,99898.06
2023-06-17T22:16:23.884Z,99896.19
2023-06-17T22:18:51.709Z,99894.53
2023-06-17T22:21:18.878Z,99890.06
2023-06-17T22:23:46.535Z,99890.13
2023-06-17T22:26:13.574Z,99900.06
2023-06-17T22:28:40.836Z,99897.38
2023-06-17T22:31:07.911Z,99897.56
2023-06-17T22:33:35.113Z,99899.47
2023-06-17T22:36:03.873Z,99899.53
2023-06-17T22:38:30.985Z,99897.63
2023-06-17T22:40:58.233Z,99890.31
2023-06-17T22:43:25.343Z,99899.31
2023-06-17T22:45:52.382Z,99894.72
2023-06-17T22:48:20.255Z,99900.38
2023-06-17T22:50:47.396Z,99906.66
2023-06-17T22:53:14.511Z,99905.78
2023-06-17T22:55:42.453Z,99902.13
2023-06-17T22:58:09.679Z,99899.41
2023-06-17T23:00:36.840Z,99894.13
2023-06-17T23:03:04.157Z,99898.53
2023-06-17T23:05:31.405Z,99902.38
2023-06-17T23:07:58.506Z,99903.31
2023-06-17T23:10:25.986Z,99899.00
2023-06-17T23:12:53.108Z,99906.03
2023-06-17T23:15:20.134Z,99905.09
2023-06-17T23:17:47.289Z,99909.66
2023-06-17T23:20:14.584Z,99904.47
2023-06-17T23:22:42.317Z,99909.78
2023-06-17T23:25:11.267Z,99911.78
2023-06-17T23:27:38.425Z,99912.69
2023-06-17T23:30:06.425Z,99912.69
2023-06-17T23:32:34.477Z,99899.38
2023-06-17T23:35:01.671Z,99899.56
2023-06-17T23:37:29.166Z,99895.03
2023-06-17T23:39:56.372Z,99890.56
2023-06-17T23:42:23.398Z,99904.72
2023-06-17T23:44:51.757Z,99907.44
2023-06-17T23:47:19.813Z,99910.97
2023-06-17T23:49:47.332Z,99911.13
2023-06-17T23:52:14.691Z,99912.00
2023-06-17T23:54:42.184Z,99909.28
2023-06-17T23:57:09.438Z,99915.69
2023-06-17T23:59:36.868Z,99915.88
